Pagrindinis puslapis
METAR-TAF:

METAR-TAF

Oro uostai :

Leknes, Norvegija

platuma: 68-09N, ilguma: 013-37E, Aukštis: 2 m

Dabartinis oras

Ataskaita buvo paskelbta 34 minutes, ne 15:50 UTC
Vėjas 17 kt iš Pietų su gūsio iki 27 kt, svyruoja nuo Pietų/Pietryčių ir Pietvakarių
Temperatūra 4°C
Drėgmė 87%
Slėgis 968 hPa
Matomumas: 9000 m
Išsisklaidę debesys ne aukštis 1500 ft
Su prošvaistėmis ne aukštis 2000 ft
lietus

METAR: ENLK 211550Z 19017G27KT 150V220 9000 SHRA SCT015 BKN020 04/02 Q0968

Laikas: 17:24 (16:24 UTC)


TAF: trūkstamas

Orai ataskaitas ir orų prognozės (METAR, TAF).

turimą stotys yra geltonos ir raudonos taškus žemėlapyje.

Perkelti pele per norėdami pamatyti stoties vardą.

Tada spustelėkite, norėdami matyti oro stebėjimo ir prognozės.

Norėdami pakeisti žemėlapį: spustelėkite ant žalios mygtukų su juodo kryžiaus žemyn,; žalią mygtuką su brūkšneliu, jei norite nutolinti; arba žalių rodyklių gretimoms žemėlapius.


METAR-TAF: